»·PEaware :: N123SX CYHZ-KJFK

N123SX :: CYHZ-KJFK

FLIGHT INFORMATION

Flight Status: Arrived
Operator: Privately registered:
United States
More flights under this callsign
Pilot: Shawn G. (7208)
Aircraft: MCDONNELL-DOUGLAS MD-88
(MD88)
More flights by this aircraft type
Origin: CYHZ Halifax Intl
Canada
Destination: KJFK Kennedy Intl
United States
More flights between these airports :: More routes between these airports
Route: ALLEX ENE PARCH2
File this flight plan on PilotEdge
Remarks:
Altitude:
(Current/Filed)
36,000ft
Speed:
(Current/Filed)
450kts
Departed: 21-Apr-17 03:47 PM
Arrived: 21-Apr-17 05:36 PM
Distance/Time
Traveled:
518nm/1:49
Distance/Time
To Go:
Arrived

Flight Plot

Page will automatically refresh every two minutes.

Flight plan parsing failed; only flown route is shown


Map Options




Map Legend


Flown Route
Filed Route
Departure Airport
Arrival Airport
Navaid (VOR, NDB)
Fix

Horizontal Profiles

Position Reports

Time Latitude Longitude Heading Altitude Ground
Speed
21-Apr-17 15:40 44.871618 -63.532791 341 483ft 0kts
21-Apr-17 15:41 44.871605 -63.532790 342 483ft 0kts
21-Apr-17 15:42 44.871336 -63.532504 285 483ft 0kts
21-Apr-17 15:43 44.871324 -63.532317 253 483ft 0kts
21-Apr-17 15:44 44.871324 -63.532317 253 483ft 0kts
21-Apr-17 15:45 44.871317 -63.532348 252 483ft 2kts
21-Apr-17 15:46 44.868781 -63.532500 130 483ft 14kts
21-Apr-17 15:47 44.866175 -63.527642 99 483ft 9kts
21-Apr-17 15:48 44.883889 -63.510155 36 834ft 152kts
21-Apr-17 15:49 44.922416 -63.481001 353 2590ft 211kts
21-Apr-17 15:50 44.944689 -63.558945 260 5924ft 252kts
21-Apr-17 15:51 44.927199 -63.674294 257 8843ft 327kts
21-Apr-17 15:52 44.906077 -63.800766 257 13187ft 341kts
21-Apr-17 15:53 44.884062 -63.933037 256 16933ft 357kts
21-Apr-17 15:54 44.861156 -64.071532 256 20104ft 374kts
21-Apr-17 15:55 44.837381 -64.216455 256 22939ft 388kts
21-Apr-17 15:56 44.812876 -64.367011 256 25415ft 403kts
21-Apr-17 15:57 44.787444 -64.524045 257 28849ft 409kts
21-Apr-17 15:58 44.762834 -64.678135 258 32156ft 406kts
21-Apr-17 15:59 44.738587 -64.830085 258 35287ft 393kts
21-Apr-17 16:00 44.715076 -64.980731 258 36181ft 395kts
21-Apr-17 16:01 44.691543 -65.131592 259 36182ft 396kts
21-Apr-17 16:02 44.668252 -65.282185 259 36181ft 395kts
21-Apr-17 16:03 44.645149 -65.432846 259 36179ft 395kts
21-Apr-17 16:04 44.622122 -65.583340 259 36178ft 389kts
21-Apr-17 16:05 44.599766 -65.732625 259 36001ft 395kts
21-Apr-17 16:06 44.577317 -65.882929 259 35995ft 395kts
21-Apr-17 16:07 44.555098 -66.032970 259 35994ft 394kts
21-Apr-17 16:08 44.532996 -66.183489 260 35992ft 394kts
21-Apr-17 16:09 44.511183 -66.333518 260 35991ft 394kts
21-Apr-17 16:10 44.489575 -66.483431 260 35990ft 394kts
21-Apr-17 16:11 44.468159 -66.633363 260 35988ft 393kts
21-Apr-17 16:12 44.447140 -66.781863 260 35998ft 395kts
21-Apr-17 16:13 44.426111 -66.931832 260 35995ft 393kts
21-Apr-17 16:14 44.396789 -67.078826 251 35994ft 395kts
21-Apr-17 16:15 44.356044 -67.221434 250 35992ft 395kts
21-Apr-17 16:16 44.315034 -67.363537 251 35991ft 395kts
21-Apr-17 16:17 44.274405 -67.504928 251 36172ft 397kts
21-Apr-17 16:18 44.233676 -67.647191 251 36177ft 395kts
21-Apr-17 16:19 44.193511 -67.788139 250 36185ft 395kts
21-Apr-17 16:20 44.153290 -67.929920 251 36184ft 395kts
21-Apr-17 16:21 44.113121 -68.072148 251 36183ft 394kts
21-Apr-17 16:22 44.073253 -68.213942 251 36181ft 394kts
21-Apr-17 16:23 44.033607 -68.355559 251 36180ft 394kts
21-Apr-17 16:24 43.994179 -68.497069 252 36179ft 394kts
21-Apr-17 16:25 43.955198 -68.637638 252 36161ft 394kts
21-Apr-17 16:26 43.916740 -68.776821 251 36159ft 393kts
21-Apr-17 16:27 43.877898 -68.918083 252 36157ft 393kts
21-Apr-17 16:28 43.839249 -69.059303 252 36155ft 393kts
21-Apr-17 16:29 43.800693 -69.200812 252 36154ft 393kts
21-Apr-17 16:30 43.762422 -69.341919 252 36152ft 393kts
21-Apr-17 16:31 43.724425 -69.482643 252 36151ft 393kts
21-Apr-17 16:32 43.686474 -69.623876 253 36149ft 392kts
21-Apr-17 16:33 43.654618 -69.742513 252 36159ft 389kts
21-Apr-17 16:34 43.617103 -69.883718 252 36157ft 392kts
21-Apr-17 16:35 43.579884 -70.024015 253 36130ft 392kts
21-Apr-17 16:36 43.542638 -70.165123 253 36127ft 392kts
21-Apr-17 16:38 43.505668 -70.305816 253 36126ft 392kts
21-Apr-17 16:39 43.468897 -70.446410 253 36124ft 391kts
21-Apr-17 16:40 43.429372 -70.585603 240 36124ft 396kts
21-Apr-17 16:41 43.332079 -70.660779 205 36110ft 428kts
21-Apr-17 16:42 43.220398 -70.714133 206 36106ft 426kts
21-Apr-17 16:43 43.109239 -70.768348 206 36078ft 426kts
21-Apr-17 16:44 42.998113 -70.822586 206 36078ft 427kts
21-Apr-17 16:45 42.887389 -70.876639 206 36076ft 427kts
21-Apr-17 16:46 42.776677 -70.931339 206 36062ft 427kts
21-Apr-17 16:47 42.664657 -70.984762 206 36048ft 428kts
21-Apr-17 16:48 42.553154 -71.037460 206 36050ft 428kts
21-Apr-17 16:49 42.440976 -71.090487 206 36047ft 428kts
21-Apr-17 16:50 42.329681 -71.143301 208 36072ft 426kts
21-Apr-17 16:51 42.218427 -71.196903 206 36074ft 428kts
21-Apr-17 16:52 42.107315 -71.249219 206 36046ft 428kts
21-Apr-17 16:53 41.995468 -71.301798 206 36046ft 429kts
21-Apr-17 16:54 41.883920 -71.354392 206 36044ft 427kts
21-Apr-17 16:55 41.772362 -71.406922 206 36043ft 427kts
21-Apr-17 16:56 41.675419 -71.483046 228 34367ft 397kts
21-Apr-17 16:57 41.591421 -71.577397 226 32106ft 395kts
21-Apr-17 16:58 41.509466 -71.668211 225 29925ft 390kts
21-Apr-17 16:59 41.426216 -71.760439 225 27770ft 391kts
21-Apr-17 17:00 41.344135 -71.851570 225 25590ft 383kts
21-Apr-17 17:01 41.264201 -71.940408 224 23598ft 368kts
21-Apr-17 17:02 41.186789 -72.025116 224 21666ft 356kts
21-Apr-17 17:03 41.112170 -72.107009 228 19770ft 343kts
21-Apr-17 17:04 41.075377 -72.214311 254 18405ft 310kts
21-Apr-17 17:05 41.049563 -72.318924 253 17219ft 289kts
21-Apr-17 17:06 41.025088 -72.416361 253 16125ft 275kts
21-Apr-17 17:07 41.001132 -72.511908 253 15074ft 272kts
21-Apr-17 17:08 40.977552 -72.606221 253 14032ft 269kts
21-Apr-17 17:09 40.956049 -72.692480 253 13108ft 266kts
21-Apr-17 17:10 40.933520 -72.782982 251 12143ft 251kts
21-Apr-17 17:11 40.883191 -72.844597 219 11479ft 259kts
21-Apr-17 17:12 40.824491 -72.899687 221 10747ft 257kts
21-Apr-17 17:13 40.766792 -72.954798 221 10029ft 263kts
21-Apr-17 17:14 40.707449 -73.011546 220 9263ft 264kts
21-Apr-17 17:15 40.679687 -73.090396 267 8124ft 250kts
21-Apr-17 17:16 40.663453 -73.178011 247 6818ft 250kts
21-Apr-17 17:17 40.633544 -73.259954 246 5547ft 247kts
21-Apr-17 17:18 40.594451 -73.333781 237 4333ft 246kts
21-Apr-17 17:19 40.554293 -73.405658 237 3137ft 242kts
21-Apr-17 17:20 40.510047 -73.471798 227 2965ft 244kts
21-Apr-17 17:21 40.464949 -73.537402 237 2965ft 241kts
21-Apr-17 17:22 40.425677 -73.608599 237 2968ft 242kts
21-Apr-17 17:23 40.392508 -73.684169 246 2995ft 240kts
21-Apr-17 17:24 40.363902 -73.763322 246 2994ft 237kts
21-Apr-17 17:25 40.337817 -73.834706 247 2994ft 209kts
21-Apr-17 17:26 40.318290 -73.902508 288 2964ft 184kts
21-Apr-17 17:27 40.358881 -73.945983 320 2994ft 192kts
21-Apr-17 17:28 40.402561 -73.986430 320 2994ft 192kts
21-Apr-17 17:29 40.446335 -74.026191 327 2984ft 194kts
21-Apr-17 17:30 40.501918 -74.032723 350 2970ft 203kts
21-Apr-17 17:31 40.558482 -74.037618 350 2869ft 205kts
21-Apr-17 17:32 40.615361 -74.043023 350 2895ft 204kts
21-Apr-17 17:33 40.669586 -74.015727 23 2886ft 216kts
21-Apr-17 17:34 40.717873 -73.970717 64 2695ft 225kts
21-Apr-17 17:35 40.706350 -73.897779 116 1979ft 196kts
21-Apr-17 17:36 40.681159 -73.841899 116 998ft 170kts
21-Apr-17 17:37 40.661369 -73.798113 113 259ft 121kts
21-Apr-17 17:38 40.647260 -73.768845 164 19ft 19kts
21-Apr-17 17:39 40.644242 -73.770584 279 19ft 7kts
21-Apr-17 17:40 40.645212 -73.771870 359 19ft 0kts

Navigation Log

Ident Type
Flight plan parsing failed, navigation log unavailable